Time;durP1;ratioP1;P1;durP2;ratioP2;P2;SDS_P1;SDS_P2;PMS_P1;PMS_P2;Temp;Humidity;BMP_temperature;BMP_pressure;BME280_temperature;BME280_humidity;BME280_pressure;Samples;Min_cycle;Max_cycle;Signal;HPM_P1;HPM_P2
2024/02/25 00:00:04;;;;;;;2.30;1.50;;;;;;;12.93;47.92;94650.69;5013373;28;20427;-73
2024/02/25 00:02:31;;;;;;;2.70;1.73;;;;;;;13.01;47.71;94634.31;5016385;28;20034;-73
2024/02/25 00:04:56;;;;;;;3.72;1.70;;;;;;;12.83;47.41;94623.84;5030699;28;20535;-73
2024/02/25 00:07:21;;;;;;;2.85;1.30;;;;;;;12.87;47.60;94646.06;5031178;28;20071;-74
2024/02/25 00:09:47;;;;;;;2.75;1.40;;;;;;;12.85;46.90;94631.53;5032851;28;20495;-73
2024/02/25 00:12:12;;;;;;;4.03;1.70;;;;;;;12.88;47.61;94652.09;5013961;28;20034;-73
2024/02/25 00:14:38;;;;;;;2.90;2.10;;;;;;;12.93;48.45;94661.13;4998224;28;20033;-73
2024/02/25 00:17:03;;;;;;;2.88;1.80;;;;;;;12.89;49.06;94653.72;5031171;28;20056;-73
2024/02/25 00:19:29;;;;;;;3.53;2.10;;;;;;;12.75;50.19;94655.00;5032452;28;20033;-73
2024/02/25 00:21:55;;;;;;;3.50;1.67;;;;;;;12.86;50.45;94675.69;5032020;28;20022;-73
2024/02/25 00:24:22;;;;;;;4.15;1.90;;;;;;;12.74;51.20;94676.84;5029821;28;20545;-73
2024/02/25 00:26:48;;;;;;;2.90;1.95;;;;;;;12.85;51.83;94684.47;5016045;28;20079;-73
2024/02/25 00:29:15;;;;;;;2.95;2.20;;;;;;;12.65;52.40;94688.13;5014391;28;20025;-73
2024/02/25 00:31:41;;;;;;;3.63;2.10;;;;;;;12.67;52.63;94668.75;5031952;28;20120;-73
2024/02/25 00:34:06;;;;;;;3.38;2.13;;;;;;;12.37;52.69;94653.38;5029300;28;20552;-73
2024/02/25 00:36:32;;;;;;;5.20;2.08;;;;;;;12.47;52.71;94651.56;5032244;28;20017;-73
2024/02/25 00:38:57;;;;;;;3.75;2.05;;;;;;;12.26;53.04;94651.78;5031418;28;20053;-73
2024/02/25 00:41:23;;;;;;;5.20;2.20;;;;;;;12.37;52.79;94675.06;5030328;28;20022;-73
2024/02/25 00:43:48;;;;;;;3.42;2.00;;;;;;;12.13;53.75;94651.25;5030891;28;20045;-73
2024/02/25 00:46:14;;;;;;;4.80;2.28;;;;;;;12.25;54.13;94658.75;5014002;28;20029;-73
2024/02/25 00:48:40;;;;;;;2.58;1.92;;;;;;;12.31;55.08;94665.16;5015191;28;20049;-73
2024/02/25 00:51:05;;;;;;;5.57;2.55;;;;;;;12.26;54.94;94683.84;5030342;28;20113;-73
2024/02/25 00:53:31;;;;;;;3.00;2.00;;;;;;;12.02;55.83;94694.69;5032171;28;20034;-74
2024/02/25 00:55:57;;;;;;;3.78;2.30;;;;;;;11.80;56.10;94641.13;5030139;28;20029;-74
2024/02/25 00:58:22;;;;;;;3.17;1.95;;;;;;;12.18;55.56;94688.94;5028756;28;20099;-74
2024/02/25 01:00:48;;;;;;;3.08;2.08;;;;;;;12.12;55.41;94686.03;5031871;28;20103;-74
2024/02/25 01:03:14;;;;;;;3.03;1.95;;;;;;;12.10;54.72;94674.97;5030509;28;20061;-74
2024/02/25 01:05:39;;;;;;;2.95;2.38;;;;;;;12.16;55.32;94682.22;5030528;28;20030;-74
2024/02/25 01:08:06;;;;;;;3.85;2.03;;;;;;;11.91;54.94;94663.59;5029612;28;20038;-74
2024/02/25 01:10:31;;;;;;;2.67;1.98;;;;;;;11.75;55.40;94637.28;5014742;28;20075;-74
2024/02/25 01:12:56;;;;;;;3.20;2.00;;;;;;;12.12;55.91;94696.47;5014860;28;20107;-73
2024/02/25 01:15:22;;;;;;;3.30;2.00;;;;;;;12.05;55.56;94686.59;5030382;28;20021;-73
2024/02/25 01:17:47;;;;;;;2.78;1.83;;;;;;;11.99;55.29;94678.53;5030567;28;20041;-73
2024/02/25 01:20:13;;;;;;;2.85;1.90;;;;;;;11.93;56.06;94687.72;5031216;28;20025;-73
2024/02/25 01:22:38;;;;;;;3.20;2.08;;;;;;;12.10;55.55;94688.00;5015016;28;20045;-73
2024/02/25 01:25:05;;;;;;;3.20;2.00;;;;;;;12.07;55.89;94689.09;4995408;28;20017;-73
2024/02/25 01:27:30;;;;;;;3.22;2.00;;;;;;;12.02;55.98;94692.09;5030798;28;20517;-73
2024/02/25 01:29:56;;;;;;;3.15;2.10;;;;;;;11.99;56.51;94692.38;5014266;28;20041;-73
2024/02/25 01:32:21;;;;;;;3.45;2.20;;;;;;;12.04;56.58;94698.00;5029986;28;20029;-73
2024/02/25 01:34:47;;;;;;;3.25;2.22;;;;;;;11.96;56.07;94671.81;5013173;28;20022;-73
2024/02/25 01:37:12;;;;;;;3.15;2.20;;;;;;;11.99;56.49;94678.53;5013115;28;20049;-73
2024/02/25 01:39:38;;;;;;;2.92;2.05;;;;;;;11.84;56.83;94691.94;4997748;28;20033;-73
2024/02/25 01:42:04;;;;;;;2.83;1.83;;;;;;;11.89;56.84;94690.72;5029529;28;20516;-73
2024/02/25 01:44:30;;;;;;;2.97;1.90;;;;;;;11.61;56.59;94678.38;4993005;28;20030;-73
2024/02/25 01:46:56;;;;;;;3.88;1.90;;;;;;;11.77;56.71;94697.84;5035296;28;20045;-73
2024/02/25 01:49:21;;;;;;;4.40;1.90;;;;;;;11.77;56.69;94693.44;5029897;28;20033;-73
2024/02/25 01:51:47;;;;;;;3.30;1.80;;;;;;;11.98;56.26;94690.75;5014255;28;20397;-73
2024/02/25 01:54:12;;;;;;;3.72;1.92;;;;;;;11.99;56.18;94694.16;5011222;28;20044;-73
2024/02/25 01:56:38;;;;;;;3.50;2.03;;;;;;;11.92;56.70;94686.06;5030683;28;20083;-73
2024/02/25 01:59:03;;;;;;;4.80;2.28;;;;;;;11.88;57.69;94695.13;5012983;28;20112;-73
2024/02/25 02:01:29;;;;;;;3.80;2.00;;;;;;;11.76;56.54;94681.41;5031224;28;20025;-74
2024/02/25 02:03:55;;;;;;;3.28;1.77;;;;;;;11.90;55.48;94690.59;5012718;28;20044;-75
2024/02/25 02:06:20;;;;;;;3.30;2.20;;;;;;;11.78;56.62;94694.25;5029884;28;20025;-73
2024/02/25 02:08:46;;;;;;;3.53;1.88;;;;;;;11.67;57.11;94691.78;5013481;28;20558;-73
2024/02/25 02:11:17;;;;;;;2.88;1.90;;;;;;;11.69;55.61;94684.69;5010704;28;21164;-73
2024/02/25 02:13:43;;;;;;;2.58;1.95;;;;;;;11.69;55.19;94688.09;5028860;28;20420;-72
2024/02/25 02:16:12;;;;;;;3.03;1.98;;;;;;;11.54;54.78;94687.69;5011773;28;20030;-73
2024/02/25 02:18:39;;;;;;;2.78;1.80;;;;;;;11.46;55.05;94658.13;5014018;28;20435;-73
2024/02/25 02:21:04;;;;;;;3.22;2.28;;;;;;;11.41;55.03;94648.13;5012330;28;20072;-73
2024/02/25 02:23:32;;;;;;;6.35;4.40;;;;;;;11.38;54.97;94631.00;5013344;28;20492;-73
2024/02/25 02:25:58;;;;;;;2.60;1.90;;;;;;;11.77;54.98;94677.00;4992300;28;20491;-73
2024/02/25 02:28:24;;;;;;;3.13;2.10;;;;;;;11.93;54.31;94681.69;4994411;28;20061;-73
2024/02/25 02:30:49;;;;;;;3.42;1.98;;;;;;;11.83;55.03;94679.88;4997703;28;20061;-73
2024/02/25 02:33:15;;;;;;;5.20;2.00;;;;;;;11.84;55.10;94672.91;5025901;28;20037;-73
2024/02/25 02:35:40;;;;;;;3.08;1.98;;;;;;;11.88;54.92;94670.88;5028269;28;20033;-73
2024/02/25 02:38:10;;;;;;;2.83;1.92;;;;;;;11.95;55.12;94680.59;5013333;28;20048;-73
2024/02/25 02:40:36;;;;;;;5.00;2.47;;;;;;;11.96;55.33;94684.84;5012685;28;20112;-73
2024/02/25 02:43:02;;;;;;;3.38;2.10;;;;;;;11.86;55.35;94681.41;5029918;28;20084;-73
2024/02/25 02:45:27;;;;;;;2.83;1.92;;;;;;;11.81;55.93;94674.00;5029903;28;20479;-72
2024/02/25 02:47:53;;;;;;;2.88;1.88;;;;;;;11.85;56.73;94679.75;5018818;28;20052;-70
2024/02/25 02:50:18;;;;;;;3.15;2.03;;;;;;;11.87;57.51;94672.66;5044971;28;20029;-70
2024/02/25 02:52:44;;;;;;;4.13;2.45;;;;;;;11.74;59.70;94669.50;5029854;28;20025;-74
2024/02/25 02:55:09;;;;;;;2.75;2.05;;;;;;;11.71;60.32;94681.00;5029615;28;20389;-70
2024/02/25 02:57:35;;;;;;;3.17;2.10;;;;;;;11.15;63.38;94599.25;5028001;28;20052;-73
2024/02/25 03:00:00;;;;;;;3.00;2.13;;;;;;;11.40;61.80;94639.50;5012048;28;20026;-72
2024/02/25 03:02:26;;;;;;;4.65;2.15;;;;;;;11.50;62.66;94662.91;5027926;28;20506;-72
2024/02/25 03:04:51;;;;;;;2.72;2.10;;;;;;;11.03;61.47;94587.34;5027942;28;20471;-73
2024/02/25 03:07:16;;;;;;;2.97;1.98;;;;;;;10.89;63.19;94601.53;5028568;28;20471;-73
2024/02/25 03:09:42;;;;;;;2.75;2.08;;;;;;;11.29;62.65;94654.41;5012056;28;20041;-72
2024/02/25 03:12:07;;;;;;;3.55;2.00;;;;;;;10.86;63.20;94582.78;5013168;28;20026;-72
2024/02/25 03:14:34;;;;;;;3.47;2.25;;;;;;;10.66;63.61;94564.56;5028725;28;20458;-73
2024/02/25 03:16:59;;;;;;;3.10;2.03;;;;;;;11.14;63.93;94654.81;5027590;28;20427;-72
2024/02/25 03:19:25;;;;;;;3.10;2.10;;;;;;;10.48;63.83;94560.97;4994884;28;20034;-73
2024/02/25 03:21:50;;;;;;;2.42;1.75;;;;;;;10.63;63.15;94588.19;5027747;28;20029;-73
2024/02/25 03:24:15;;;;;;;3.10;1.70;;;;;;;10.93;62.75;94646.28;5028657;28;20075;-73
2024/02/25 03:26:41;;;;;;;3.38;1.80;;;;;;;11.12;63.14;94674.09;4994357;28;20034;-73
2024/02/25 03:29:06;;;;;;;2.25;1.50;;;;;;;10.74;63.55;94606.28;5028368;28;20079;-72
2024/02/25 03:31:35;;;;;;;2.67;1.70;;;;;;;11.09;63.17;94672.56;5013097;28;20037;-72
2024/02/25 03:34:01;;;;;;;5.15;2.20;;;;;;;11.21;62.74;94669.84;5013026;28;20590;-72
2024/02/25 03:36:26;;;;;;;3.83;2.20;;;;;;;10.70;62.85;94593.69;5013450;28;20040;-73
2024/02/25 03:38:52;;;;;;;2.83;1.70;;;;;;;10.88;64.33;94669.22;5012498;28;20053;-72
2024/02/25 03:41:17;;;;;;;3.70;1.90;;;;;;;10.43;64.35;94582.13;4996670;28;20302;-73
2024/02/25 03:43:42;;;;;;;2.30;1.70;;;;;;;11.09;64.03;94676.97;5029410;28;20522;-72
2024/02/25 03:46:08;;;;;;;2.40;1.70;;;;;;;10.53;63.36;94595.16;5029441;28;20030;-73
2024/02/25 03:48:33;;;;;;;2.38;1.83;;;;;;;11.15;65.04;94687.63;5029367;28;20407;-72
2024/02/25 03:51:00;;;;;;;2.85;1.70;;;;;;;10.85;64.92;94617.53;5012971;28;20510;-73
2024/02/25 03:53:25;;;;;;;2.75;1.75;;;;;;;10.58;66.86;94585.16;5029288;28;20048;-73
2024/02/25 03:55:50;;;;;;;2.97;1.70;;;;;;;10.81;66.11;94635.16;5029226;28;20388;-73
2024/02/25 03:58:16;;;;;;;3.83;2.30;;;;;;;11.11;65.32;94688.84;5029185;28;20033;-73
2024/02/25 04:00:41;;;;;;;3.33;1.80;;;;;;;11.10;64.68;94686.38;5012869;28;20022;-73
2024/02/25 04:03:07;;;;;;;3.58;2.00;;;;;;;10.66;64.96;94602.69;5030817;28;20107;-73
2024/02/25 04:05:32;;;;;;;2.72;1.73;;;;;;;11.12;65.70;94698.31;5028944;28;20554;-73
2024/02/25 04:07:58;;;;;;;4.13;1.67;;;;;;;10.90;65.57;94672.53;5029153;28;20040;-72
2024/02/25 04:10:25;;;;;;;4.72;1.70;;;;;;;11.10;64.92;94702.00;5012564;28;20414;-73
2024/02/25 04:12:50;;;;;;;2.30;1.60;;;;;;;10.27;67.37;94592.19;5029198;28;20447;-73
2024/02/25 04:15:16;;;;;;;3.60;2.00;;;;;;;10.99;68.96;94704.69;5028811;28;20029;-72
2024/02/25 04:17:41;;;;;;;2.33;1.73;;;;;;;10.59;68.52;94654.38;5029121;28;20025;-72
2024/02/25 04:20:07;;;;;;;2.08;1.50;;;;;;;10.82;67.96;94700.94;5012516;28;20520;-73
2024/02/25 04:22:33;;;;;;;4.10;2.10;;;;;;;10.50;68.64;94636.94;5012791;28;20524;-72
2024/02/25 04:24:59;;;;;;;4.95;2.30;;;;;;;10.70;69.51;94714.03;5028993;28;20029;-72
2024/02/25 04:27:24;;;;;;;3.75;2.08;;;;;;;10.79;70.34;94712.41;5012722;28;20802;-73
2024/02/25 04:29:50;;;;;;;2.60;1.95;;;;;;;10.39;70.65;94642.25;5028876;28;20036;-73
2024/02/25 04:32:15;;;;;;;3.25;2.13;;;;;;;10.49;71.42;94643.94;4996211;28;20041;-73
2024/02/25 04:34:41;;;;;;;4.53;2.10;;;;;;;10.56;71.68;94680.59;5012311;28;20103;-73
2024/02/25 04:37:06;;;;;;;3.72;2.00;;;;;;;10.84;71.91;94725.03;5028693;28;20530;-73
2024/02/25 04:39:32;;;;;;;3.00;1.98;;;;;;;10.37;72.39;94657.97;5028870;28;20021;-72
2024/02/25 04:41:57;;;;;;;2.20;1.83;;;;;;;10.33;73.39;94664.34;5012238;28;20033;-72
2024/02/25 04:44:23;;;;;;;3.20;1.80;;;;;;;10.01;73.23;94644.47;5012509;28;20029;-73
2024/02/25 04:46:48;;;;;;;2.55;1.90;;;;;;;10.14;73.48;94665.06;5015367;28;20041;-72
2024/02/25 04:49:17;;;;;;;3.58;2.13;;;;;;;10.04;73.45;94677.16;5033680;28;20510;-72
2024/02/25 04:51:43;;;;;;;3.30;1.90;;;;;;;10.43;73.87;94719.75;5000155;28;20040;-72
2024/02/25 04:54:09;;;;;;;2.78;2.00;;;;;;;10.13;74.24;94694.53;5032670;28;20037;-74
2024/02/25 04:56:35;;;;;;;2.90;1.95;;;;;;;9.85;74.14;94629.34;5015815;28;20025;-73
2024/02/25 04:59:01;;;;;;;3.28;2.08;;;;;;;10.29;75.26;94720.91;5016127;28;20041;-72
2024/02/25 05:01:26;;;;;;;2.78;1.88;;;;;;;10.38;74.16;94723.69;5015535;28;20099;-72
2024/02/25 05:03:51;;;;;;;4.57;2.10;;;;;;;10.32;74.66;94722.44;5015782;28;20557;-73
2024/02/25 05:06:17;;;;;;;4.15;2.00;;;;;;;9.66;75.31;94628.41;5031816;28;20029;-73
2024/02/25 05:08:42;;;;;;;3.13;2.20;;;;;;;10.20;74.88;94729.44;5013939;28;20447;-73
2024/02/25 05:11:08;;;;;;;3.00;2.17;;;;;;;10.05;74.82;94696.94;5014436;28;20029;-72
2024/02/25 05:13:33;;;;;;;2.80;2.20;;;;;;;10.13;76.38;94714.50;5032067;28;20029;-73
2024/02/25 05:15:59;;;;;;;4.70;2.35;;;;;;;10.09;76.63;94711.34;5015169;28;20033;-72
2024/02/25 05:18:27;;;;;;;3.60;2.40;;;;;;;9.69;77.08;94660.09;5030774;28;20041;-72
2024/02/25 05:20:52;;;;;;;3.22;1.98;;;;;;;10.08;76.94;94733.03;5031928;28;20036;-72
2024/02/25 05:23:18;;;;;;;3.47;2.50;;;;;;;10.06;77.41;94725.38;5014246;28;20033;-73
2024/02/25 05:25:43;;;;;;;3.42;2.50;;;;;;;9.55;77.98;94637.06;5015092;28;20423;-72
2024/02/25 05:28:09;;;;;;;5.15;2.88;;;;;;;10.14;77.73;94727.34;5015381;28;20049;-73
2024/02/25 05:30:34;;;;;;;3.63;2.47;;;;;;;10.03;78.66;94741.22;4998837;28;20080;-72
2024/02/25 05:32:59;;;;;;;4.43;2.38;;;;;;;9.51;78.57;94653.84;5031851;28;20503;-73
2024/02/25 05:35:25;;;;;;;4.43;2.60;;;;;;;9.56;79.35;94672.44;5031592;28;20033;-73
2024/02/25 05:37:51;;;;;;;5.65;2.60;;;;;;;9.69;79.85;94701.59;5014838;28;20053;-72
2024/02/25 05:40:40;;;;;;;2.88;2.40;;;;;;;9.95;80.11;94741.00;4998618;28;20044;-72
2024/02/25 05:43:05;;;;;;;3.72;2.67;;;;;;;10.08;79.88;94746.00;5031705;28;20065;-72
2024/02/25 05:45:31;;;;;;;3.70;2.63;;;;;;;9.96;80.10;94754.81;5031364;28;20111;-73
2024/02/25 05:47:57;;;;;;;4.43;2.60;;;;;;;9.73;80.70;94718.56;5031536;28;20033;-72
2024/02/25 05:50:22;;;;;;;3.55;2.40;;;;;;;9.43;80.60;94684.75;5014756;28;20586;-72
2024/02/25 05:52:47;;;;;;;4.45;2.95;;;;;;;9.71;81.99;94730.84;5031304;28;20034;-72
2024/02/25 05:55:13;;;;;;;3.88;3.20;;;;;;;9.76;81.44;94731.28;5014637;28;20026;-72
2024/02/25 05:57:39;;;;;;;4.88;3.33;;;;;;;9.24;81.34;94668.06;5031221;28;20124;-72
2024/02/25 06:00:05;;;;;;;4.97;3.22;;;;;;;9.49;81.74;94697.22;5031175;28;20033;-72
2024/02/25 06:02:31;;;;;;;5.53;3.42;;;;;;;9.97;81.44;94766.81;4998354;28;20120;-73
2024/02/25 06:04:56;;;;;;;4.68;3.40;;;;;;;9.88;81.08;94757.19;5014480;28;20029;-72
2024/02/25 06:07:25;;;;;;;5.28;3.47;;;;;;;9.83;81.37;94761.00;5014507;28;20095;-72
2024/02/25 06:09:50;;;;;;;4.65;3.13;;;;;;;9.94;82.14;94748.91;5032176;28;20033;-72
2024/02/25 06:12:15;;;;;;;4.15;3.15;;;;;;;9.93;81.82;94768.03;5014400;28;20088;-73
2024/02/25 06:14:41;;;;;;;5.00;3.03;;;;;;;9.10;81.79;94686.47;5014344;28;20026;-72
2024/02/25 06:17:06;;;;;;;3.72;2.75;;;;;;;9.67;80.82;94778.72;5014473;28;20038;-72
2024/02/25 06:19:33;;;;;;;4.70;3.38;;;;;;;9.80;80.07;94781.97;5014161;28;20506;-72
2024/02/25 06:21:59;;;;;;;4.28;2.90;;;;;;;9.41;81.31;94708.19;5030659;28;20029;-72
2024/02/25 06:24:25;;;;;;;5.57;3.60;;;;;;;9.75;82.02;94781.53;5014179;28;20514;-72
2024/02/25 06:26:50;;;;;;;4.80;3.33;;;;;;;9.30;82.30;94722.00;4997710;28;20029;-72
2024/02/25 06:29:17;;;;;;;5.05;3.63;;;;;;;9.47;84.23;94787.25;5014210;28;20034;-72
2024/02/25 06:31:44;;;;;;;7.40;3.85;;;;;;;8.82;84.28;94682.63;5014190;28;20108;-72
2024/02/25 06:34:10;;;;;;;5.78;3.42;;;;;;;9.65;85.23;94778.03;5030708;28;20595;-72
2024/02/25 06:36:35;;;;;;;5.28;3.50;;;;;;;9.50;86.04;94776.63;5014081;28;20040;-72
2024/02/25 06:39:02;;;;;;;6.25;3.70;;;;;;;9.45;86.08;94766.66;5013735;28;20401;-72
2024/02/25 06:41:28;;;;;;;5.22;3.47;;;;;;;9.63;85.59;94769.53;4997794;28;20272;-72
2024/02/25 06:43:54;;;;;;;4.95;3.42;;;;;;;9.41;86.03;94705.59;4997717;28;20042;-72
2024/02/25 06:46:19;;;;;;;5.85;3.58;;;;;;;9.96;85.48;94785.94;5013846;28;20120;-72
2024/02/25 06:48:45;;;;;;;5.40;3.60;;;;;;;10.08;86.38;94779.75;5014096;28;20422;-72
2024/02/25 06:51:28;;;;;;;7.80;3.80;;;;;;;9.99;86.46;94785.69;5013790;28;20420;-73
2024/02/25 06:53:54;;;;;;;6.60;4.30;;;;;;;9.90;85.57;94768.28;4998052;28;20044;-72
2024/02/25 06:56:19;;;;;;;8.23;4.47;;;;;;;10.00;85.03;94788.19;5013695;28;20104;-72
2024/02/25 06:58:45;;;;;;;7.25;4.70;;;;;;;9.45;84.96;94704.41;5013806;28;20030;-72
2024/02/25 07:01:12;;;;;;;8.10;4.35;;;;;;;10.08;84.38;94787.53;5030075;28;20393;-72
2024/02/25 07:03:41;;;;;;;6.47;4.22;;;;;;;9.87;83.48;94737.41;5013859;28;20476;-72
2024/02/25 07:06:08;;;;;;;7.00;4.45;;;;;;;9.45;83.87;94688.03;4997046;28;20502;-72
2024/02/25 07:08:34;;;;;;;7.43;4.85;;;;;;;10.18;83.80;94775.47;5013164;28;20063;-73
2024/02/25 07:10:59;;;;;;;6.97;4.95;;;;;;;9.84;83.61;94699.56;5029911;28;20030;-72
2024/02/25 07:13:25;;;;;;;9.13;6.05;;;;;;;9.83;83.45;94708.25;5013464;28;20427;-72
2024/02/25 07:15:50;;;;;;;11.93;7.32;;;;;;;10.29;83.85;94791.00;5013453;28;20393;-72
2024/02/25 07:18:15;;;;;;;9.80;6.30;;;;;;;10.36;83.61;94795.69;5013339;28;20034;-72
2024/02/25 07:20:41;;;;;;;12.10;7.47;;;;;;;10.42;83.93;94793.44;4996866;28;20026;-72
2024/02/25 07:23:06;;;;;;;9.88;5.80;;;;;;;9.75;84.14;94708.91;4997016;28;20037;-72
2024/02/25 07:25:32;;;;;;;11.70;7.53;;;;;;;10.40;84.29;94784.13;5013216;28;20499;-72
2024/02/25 07:27:57;;;;;;;10.10;6.25;;;;;;;9.98;84.11;94722.59;5029776;28;20038;-72
2024/02/25 07:30:23;;;;;;;12.10;7.93;;;;;;;10.07;84.75;94695.06;4996762;28;20032;-72
2024/02/25 07:32:48;;;;;;;11.43;7.22;;;;;;;10.16;84.49;94699.47;4996807;28;20075;-72
2024/02/25 07:35:14;;;;;;;11.27;7.38;;;;;;;10.63;83.89;94770.03;5013034;28;20029;-72
2024/02/25 07:37:39;;;;;;;14.07;8.40;;;;;;;10.63;83.29;94764.03;5012793;28;20099;-72
2024/02/25 07:40:10;;;;;;;13.38;7.25;;;;;;;10.72;83.49;94763.25;5013383;28;20025;-73
2024/02/25 07:42:35;;;;;;;;;;;;;;;10.74;83.53;94767.38;5014006;28;20479;-72
2024/02/25 07:45:01;;;;;;;11.40;6.05;;;;;;;10.80;83.63;94762.59;5030652;28;19913;-72
2024/02/25 07:47:26;;;;;;;9.75;6.88;;;;;;;10.41;83.45;94698.28;5012977;28;20041;-72
2024/02/25 07:49:52;;;;;;;8.65;5.90;;;;;;;10.82;83.64;94763.31;5012975;28;20025;-72
2024/02/25 07:52:17;;;;;;;8.45;5.07;;;;;;;10.13;83.04;94678.97;4996556;28;20581;-72
2024/02/25 07:54:43;;;;;;;8.20;5.03;;;;;;;10.63;83.05;94758.84;5012888;28;20040;-72
2024/02/25 07:57:08;;;;;;;7.93;5.00;;;;;;;10.11;83.18;94699.03;5029440;28;20037;-72
2024/02/25 07:59:34;;;;;;;9.07;5.95;;;;;;;10.52;83.73;94763.13;5030682;28;20030;-72
2024/02/25 08:01:59;;;;;;;7.97;5.07;;;;;;;10.63;83.78;94751.84;5012841;28;20033;-72
2024/02/25 08:04:25;;;;;;;8.32;6.07;;;;;;;10.37;83.64;94706.47;5029161;28;20025;-71
2024/02/25 08:06:50;;;;;;;8.75;6.63;;;;;;;10.38;83.94;94692.53;5029257;28;20033;-72
2024/02/25 08:09:16;;;;;;;10.57;8.23;;;;;;;10.95;83.95;94756.13;5012758;28;20029;-72
2024/02/25 08:11:41;;;;;;;12.77;9.57;;;;;;;11.01;84.08;94747.78;5012724;28;20033;-72
2024/02/25 08:14:07;;;;;;;13.57;10.88;;;;;;;10.61;84.10;94656.81;5029321;28;20045;-72
2024/02/25 08:16:35;;;;;;;8.63;6.35;;;;;;;10.70;81.99;94677.66;5029144;28;20025;-72
2024/02/25 08:19:01;;;;;;;9.75;6.38;;;;;;;11.04;82.47;94744.13;5013197;28;20041;-71
2024/02/25 08:21:26;;;;;;;11.50;6.28;;;;;;;10.94;83.06;94747.47;5015375;28;20082;-72
2024/02/25 08:23:52;;;;;;;8.00;5.30;;;;;;;10.32;82.89;94641.13;5000302;28;20480;-72
2024/02/25 08:26:18;;;;;;;8.88;5.65;;;;;;;10.29;83.05;94637.00;5034088;28;20040;-72
2024/02/25 08:28:43;;;;;;;7.25;5.32;;;;;;;10.71;83.26;94674.09;5016420;28;20029;-72
2024/02/25 08:31:09;;;;;;;7.80;5.60;;;;;;;10.98;82.76;94695.22;5016272;28;20429;-72
2024/02/25 08:33:35;;;;;;;10.85;7.47;;;;;;;10.96;83.20;94672.81;5000391;28;20088;-72
2024/02/25 08:36:01;;;;;;;11.70;8.48;;;;;;;11.15;84.31;94737.03;5000148;28;20025;-72
2024/02/25 08:38:26;;;;;;;10.15;7.22;;;;;;;11.04;84.37;94733.72;4999566;28;20144;-72
2024/02/25 08:40:51;;;;;;;14.25;7.80;;;;;;;10.55;84.33;94641.75;5032653;28;20458;-72
2024/02/25 08:43:17;;;;;;;10.20;7.18;;;;;;;10.46;84.63;94656.34;5034109;28;20475;-72
2024/02/25 08:45:42;;;;;;;32.63;18.15;;;;;;;10.64;85.54;94730.13;4999636;28;20056;-72
2024/02/25 08:48:08;;;;;;;15.73;11.55;;;;;;;10.13;85.63;94658.19;4999765;28;20489;-72
2024/02/25 08:50:33;;;;;;;18.75;11.57;;;;;;;10.00;86.79;94652.38;5015751;28;20491;-71
2024/02/25 08:52:58;;;;;;;26.48;15.77;;;;;;;10.18;86.64;94666.44;5032357;28;20041;-72
2024/02/25 08:55:24;;;;;;;28.23;15.13;;;;;;;10.59;86.38;94724.50;5032276;28;20018;-72
2024/02/25 08:57:49;;;;;;;54.90;26.75;;;;;;;10.13;86.20;94655.59;5015711;28;20087;-72
2024/02/25 09:00:15;;;;;;;58.13;26.42;;;;;;;10.59;86.30;94729.69;5015566;28;20091;-72
2024/02/25 09:02:41;;;;;;;41.67;21.27;;;;;;;10.65;85.71;94725.75;5015655;28;20048;-72
2024/02/25 09:05:06;;;;;;;35.10;16.45;;;;;;;10.16;84.50;94649.34;5015759;28;20025;-72
2024/02/25 09:07:32;;;;;;;71.72;29.15;;;;;;;10.33;85.01;94651.38;5015427;28;20530;-72
2024/02/25 09:09:58;;;;;;;21.52;13.10;;;;;;;10.27;84.54;94650.13;5032175;28;20033;-72
2024/02/25 09:12:23;;;;;;;37.85;16.48;;;;;;;10.10;85.05;94645.50;5015552;28;20037;-72
2024/02/25 09:14:49;;;;;;;63.55;26.70;;;;;;;10.56;85.16;94705.72;5033772;28;20021;-72
2024/02/25 09:17:15;;;;;;;19.92;11.38;;;;;;;10.83;83.93;94713.78;5015385;28;20029;-72
2024/02/25 09:19:40;;;;;;;21.50;12.10;;;;;;;11.10;83.14;94712.38;5015432;28;20415;-72
2024/02/25 09:22:06;;;;;;;124.85;39.20;;;;;;;10.88;82.35;94677.84;5031945;28;20500;-72
2024/02/25 09:24:31;;;;;;;43.38;20.52;;;;;;;11.25;81.48;94718.03;5015218;28;20411;-71
2024/02/25 09:26:56;;;;;;;82.25;33.15;;;;;;;11.09;81.81;94711.56;4998911;28;20029;-72
2024/02/25 09:29:22;;;;;;;62.75;24.02;;;;;;;10.57;82.02;94651.06;5015323;28;20025;-72
2024/02/25 09:31:47;;;;;;;15.70;9.25;;;;;;;10.46;82.23;94622.59;5032443;28;20030;-72
2024/02/25 09:34:14;;;;;;;12.25;8.05;;;;;;;10.93;81.32;94641.06;5015244;28;20032;-72
2024/02/25 09:36:41;;;;;;;30.15;14.35;;;;;;;10.85;80.84;94604.53;5031621;28;20099;-72
2024/02/25 09:39:06;;;;;;;84.07;31.88;;;;;;;10.87;80.89;94615.63;5032595;28;20504;-72
2024/02/25 09:41:36;;;;;;;17.27;10.05;;;;;;;11.10;80.76;94676.81;5031500;28;20025;-72
2024/02/25 09:44:02;;;;;;;50.40;25.13;;;;;;;10.69;81.47;94618.84;5015223;28;20486;-72
2024/02/25 09:46:27;;;;;;;30.20;18.77;;;;;;;10.68;81.35;94619.81;5014913;28;20535;-72
2024/02/25 09:48:54;;;;;;;12.02;8.85;;;;;;;10.65;81.94;94616.66;4998714;28;20087;-72
2024/02/25 09:51:23;;;;;;;13.20;7.90;;;;;;;10.97;82.29;94678.81;4998675;28;20037;-72
2024/02/25 09:53:52;;;;;;;10.50;7.40;;;;;;;11.22;81.56;94682.72;5015095;28;20475;-72
2024/02/25 09:56:21;;;;;;;13.60;7.25;;;;;;;11.30;81.31;94674.25;5014829;28;20025;-72
2024/02/25 09:58:48;;;;;;;10.18;7.43;;;;;;;11.13;81.67;94684.34;5014860;28;20095;-72
2024/02/25 10:01:14;;;;;;;12.43;7.53;;;;;;;11.41;81.17;94684.53;5014736;28;20021;-72
2024/02/25 10:03:40;;;;;;;12.88;8.25;;;;;;;11.07;80.00;94619.06;4998621;28;20037;-72
2024/02/25 10:06:06;;;;;;;12.25;8.60;;;;;;;11.33;81.54;94674.78;5031126;28;20052;-73
2024/02/25 10:08:46;;;;;;;11.23;8.13;;;;;;;11.35;81.48;94674.66;5014604;28;20037;-72
2024/02/25 10:11:12;;;;;;;11.47;7.63;;;;;;;11.66;80.21;94666.75;5015012;28;20052;-72
2024/02/25 10:13:37;;;;;;;13.77;9.10;;;;;;;11.44;80.85;94667.84;4998225;28;20073;-72
2024/02/25 10:16:03;;;;;;;14.43;8.60;;;;;;;11.38;80.52;94664.00;5014310;28;20029;-72
2024/02/25 10:18:28;;;;;;;13.13;8.82;;;;;;;10.93;81.42;94589.09;4998134;28;20037;-72
2024/02/25 10:21:06;;;;;;;8.48;6.68;;;;;;;10.86;80.93;94577.56;5014330;28;20022;-72
2024/02/25 10:23:34;;;;;;;9.45;6.82;;;;;;;11.07;80.46;94593.91;5014486;28;20048;-72
2024/02/25 10:26:13;;;;;;;10.80;6.57;;;;;;;11.15;79.92;94596.63;5014637;28;20473;-72
2024/02/25 10:28:39;;;;;;;81.38;43.60;;;;;;;11.73;79.95;94660.88;5015003;28;20041;-72
2024/02/25 10:31:05;;;;;;;21.65;14.07;;;;;;;11.40;78.54;94571.88;5030649;28;20411;-72
2024/02/25 10:33:30;;;;;;;11.65;8.13;;;;;;;11.65;78.39;94602.66;5014046;28;20040;-72
2024/02/25 10:36:12;;;;;;;11.82;7.30;;;;;;;11.83;78.46;94655.63;5030489;28;20504;-73
2024/02/25 10:38:44;;;;;;;11.95;7.00;;;;;;;11.35;78.80;94583.66;5013806;28;20099;-72
2024/02/25 10:41:10;;;;;;;12.75;7.18;;;;;;;11.72;78.44;94648.78;5014339;28;20044;-72
2024/02/25 10:43:36;;;;;;;9.60;6.20;;;;;;;11.90;78.84;94635.94;5013388;28;20042;-72
2024/02/25 10:46:10;;;;;;;11.88;7.45;;;;;;;11.51;78.46;94598.72;5030324;28;20017;-72
2024/02/25 10:48:36;;;;;;;19.05;13.75;;;;;;;11.96;77.84;94627.56;5014428;28;20049;-72
2024/02/25 10:51:02;;;;;;;17.98;11.02;;;;;;;11.85;78.02;94635.50;5013693;28;20029;-72
2024/02/25 10:53:28;;;;;;;12.85;8.98;;;;;;;11.74;77.85;94627.84;4997442;28;20550;-73
2024/02/25 10:55:58;;;;;;;9.13;7.05;;;;;;;11.96;76.36;94624.97;5013834;28;20029;-73
2024/02/25 10:58:25;;;;;;;11.00;6.22;;;;;;;12.04;76.39;94625.09;5013838;28;20041;-72
2024/02/25 11:00:52;;;;;;;13.32;6.85;;;;;;;12.03;77.08;94622.63;5013817;28;20030;-72
2024/02/25 11:03:19;;;;;;;8.02;5.75;;;;;;;11.62;76.31;94549.94;4997777;28;20095;-72
2024/02/25 11:05:45;;;;;;;8.63;5.53;;;;;;;11.59;75.08;94515.59;5013670;28;20076;-74
2024/02/25 11:08:11;;;;;;;8.13;5.97;;;;;;;12.13;76.04;94593.97;5013538;28;20049;-72
2024/02/25 11:10:37;;;;;;;12.15;8.07;;;;;;;11.97;75.52;94574.53;5012264;28;20059;-72
2024/02/25 11:13:03;;;;;;;11.50;8.63;;;;;;;12.03;76.40;94599.19;4995725;28;20034;-72
2024/02/25 11:15:29;;;;;;;13.48;9.40;;;;;;;12.12;76.54;94592.31;4994878;28;20035;-72
2024/02/25 11:17:55;;;;;;;11.15;7.72;;;;;;;12.05;75.87;94603.28;5011915;28;20033;-73
2024/02/25 11:20:28;;;;;;;11.45;8.65;;;;;;;12.02;75.69;94546.31;5029351;28;20112;-72
2024/02/25 11:22:54;;;;;;;13.43;8.93;;;;;;;11.91;75.31;94519.63;5013388;28;20495;-73
2024/02/25 11:25:25;;;;;;;13.00;7.90;;;;;;;12.27;74.68;94596.94;5013318;28;20037;-73